sensor_id;sensor_type;location;lat;lon;timestamp;temperature;humidity
2054;DHT22;1032;52.542;13.440;2023-03-03T00:01:08;2.20;99.90
2054;DHT22;1032;52.542;13.440;2023-03-03T00:03:34;2.40;99.90
2054;DHT22;1032;52.542;13.440;2023-03-03T00:06:02;2.30;99.90
2054;DHT22;1032;52.542;13.440;2023-03-03T00:08:29;2.10;99.90
2054;DHT22;1032;52.542;13.440;2023-03-03T00:10:58;2.40;99.90
2054;DHT22;1032;52.542;13.440;2023-03-03T00:13:29;2.30;99.90
2054;DHT22;1032;52.542;13.440;2023-03-03T00:16:13;2.20;99.90
2054;DHT22;1032;52.542;13.440;2023-03-03T00:18:42;1.90;99.90
2054;DHT22;1032;52.542;13.440;2023-03-03T00:21:21;1.70;99.90
2054;DHT22;1032;52.542;13.440;2023-03-03T00:23:50;2.20;99.90
2054;DHT22;1032;52.542;13.440;2023-03-03T00:26:21;1.70;99.90
2054;DHT22;1032;52.542;13.440;2023-03-03T00:28:50;2.20;99.90
2054;DHT22;1032;52.542;13.440;2023-03-03T00:31:19;2.00;99.90
2054;DHT22;1032;52.542;13.440;2023-03-03T00:33:48;2.00;99.90
2054;DHT22;1032;52.542;13.440;2023-03-03T00:36:29;2.00;99.90
2054;DHT22;1032;52.542;13.440;2023-03-03T00:39:09;2.30;99.90
2054;DHT22;1032;52.542;13.440;2023-03-03T00:41:39;2.00;99.90
2054;DHT22;1032;52.542;13.440;2023-03-03T00:44:30;2.00;99.90
2054;DHT22;1032;52.542;13.440;2023-03-03T00:47:02;2.30;99.90
2054;DHT22;1032;52.542;13.440;2023-03-03T00:49:38;2.00;99.90
2054;DHT22;1032;52.542;13.440;2023-03-03T00:52:10;2.40;99.90
2054;DHT22;1032;52.542;13.440;2023-03-03T00:54:39;2.20;99.90
2054;DHT22;1032;52.542;13.440;2023-03-03T00:57:07;2.30;99.90
2054;DHT22;1032;52.542;13.440;2023-03-03T00:59:35;2.40;99.90
2054;DHT22;1032;52.542;13.440;2023-03-03T01:02:01;1.60;99.90
2054;DHT22;1032;52.542;13.440;2023-03-03T01:04:28;2.20;99.90
2054;DHT22;1032;52.542;13.440;2023-03-03T01:06:55;2.00;99.90
2054;DHT22;1032;52.542;13.440;2023-03-03T01:09:21;2.40;99.90
2054;DHT22;1032;52.542;13.440;2023-03-03T01:11:49;2.10;99.90
2054;DHT22;1032;52.542;13.440;2023-03-03T01:14:17;2.30;99.90
2054;DHT22;1032;52.542;13.440;2023-03-03T01:16:44;2.30;99.90
2054;DHT22;1032;52.542;13.440;2023-03-03T01:19:10;2.50;99.90
2054;DHT22;1032;52.542;13.440;2023-03-03T01:21:37;2.00;99.90
2054;DHT22;1032;52.542;13.440;2023-03-03T01:24:04;2.00;99.90
2054;DHT22;1032;52.542;13.440;2023-03-03T01:26:31;2.40;99.90
2054;DHT22;1032;52.542;13.440;2023-03-03T01:28:58;2.00;99.90
2054;DHT22;1032;52.542;13.440;2023-03-03T01:31:26;2.20;99.90
2054;DHT22;1032;52.542;13.440;2023-03-03T01:33:52;2.20;99.90
2054;DHT22;1032;52.542;13.440;2023-03-03T01:36:22;2.40;99.90
2054;DHT22;1032;52.542;13.440;2023-03-03T01:38:49;2.40;99.90
2054;DHT22;1032;52.542;13.440;2023-03-03T01:41:15;1.70;99.90
2054;DHT22;1032;52.542;13.440;2023-03-03T01:43:45;2.40;99.90
2054;DHT22;1032;52.542;13.440;2023-03-03T01:46:33;2.40;99.90
2054;DHT22;1032;52.542;13.440;2023-03-03T01:49:05;1.80;99.90
2054;DHT22;1032;52.542;13.440;2023-03-03T01:51:35;2.30;99.90
2054;DHT22;1032;52.542;13.440;2023-03-03T01:54:08;2.30;99.90
2054;DHT22;1032;52.542;13.440;2023-03-03T01:56:37;2.20;99.90
2054;DHT22;1032;52.542;13.440;2023-03-03T01:59:08;2.20;99.90
2054;DHT22;1032;52.542;13.440;2023-03-03T02:01:37;2.10;99.90
2054;DHT22;1032;52.542;13.440;2023-03-03T02:04:04;2.10;99.90
2054;DHT22;1032;52.542;13.440;2023-03-03T02:06:35;2.50;99.90
2054;DHT22;1032;52.542;13.440;2023-03-03T02:09:06;2.50;99.90
2054;DHT22;1032;52.542;13.440;2023-03-03T02:11:37;2.30;99.90
2054;DHT22;1032;52.542;13.440;2023-03-03T02:14:04;2.00;99.90
2054;DHT22;1032;52.542;13.440;2023-03-03T02:16:31;2.20;99.90
2054;DHT22;1032;52.542;13.440;2023-03-03T02:18:59;2.40;99.90
2054;DHT22;1032;52.542;13.440;2023-03-03T02:21:27;2.50;99.90
2054;DHT22;1032;52.542;13.440;2023-03-03T02:23:58;2.80;99.90
2054;DHT22;1032;52.542;13.440;2023-03-03T02:26:29;2.20;99.90
2054;DHT22;1032;52.542;13.440;2023-03-03T02:29:01;1.60;99.90
2054;DHT22;1032;52.542;13.440;2023-03-03T02:31:30;2.60;99.90
2054;DHT22;1032;52.542;13.440;2023-03-03T02:33:58;2.30;99.90
2054;DHT22;1032;52.542;13.440;2023-03-03T02:36:27;2.30;99.90
2054;DHT22;1032;52.542;13.440;2023-03-03T02:39:00;2.40;99.90
2054;DHT22;1032;52.542;13.440;2023-03-03T02:41:32;2.50;99.90
2054;DHT22;1032;52.542;13.440;2023-03-03T02:44:03;2.20;99.90
2054;DHT22;1032;52.542;13.440;2023-03-03T02:46:33;2.20;99.90
2054;DHT22;1032;52.542;13.440;2023-03-03T02:49:00;2.20;99.90
2054;DHT22;1032;52.542;13.440;2023-03-03T02:51:27;2.40;99.90
2054;DHT22;1032;52.542;13.440;2023-03-03T02:53:54;1.70;99.90
2054;DHT22;1032;52.542;13.440;2023-03-03T02:56:22;2.80;99.90
2054;DHT22;1032;52.542;13.440;2023-03-03T02:58:50;2.10;99.90
2054;DHT22;1032;52.542;13.440;2023-03-03T03:01:17;2.00;99.90
2054;DHT22;1032;52.542;13.440;2023-03-03T03:03:45;2.40;99.90
2054;DHT22;1032;52.542;13.440;2023-03-03T03:06:15;2.10;99.90
2054;DHT22;1032;52.542;13.440;2023-03-03T03:08:42;2.20;99.90
2054;DHT22;1032;52.542;13.440;2023-03-03T03:11:09;1.60;99.90
2054;DHT22;1032;52.542;13.440;2023-03-03T03:13:37;2.00;99.90
2054;DHT22;1032;52.542;13.440;2023-03-03T03:16:06;1.90;99.90
2054;DHT22;1032;52.542;13.440;2023-03-03T03:18:33;2.20;99.90
2054;DHT22;1032;52.542;13.440;2023-03-03T03:21:11;2.20;99.90
2054;DHT22;1032;52.542;13.440;2023-03-03T03:23:39;2.00;99.90
2054;DHT22;1032;52.542;13.440;2023-03-03T03:26:06;2.00;99.90
2054;DHT22;1032;52.542;13.440;2023-03-03T03:28:34;2.10;99.90
2054;DHT22;1032;52.542;13.440;2023-03-03T03:31:02;1.90;99.90
2054;DHT22;1032;52.542;13.440;2023-03-03T03:33:30;2.10;99.90
2054;DHT22;1032;52.542;13.440;2023-03-03T03:35:59;2.10;99.90
2054;DHT22;1032;52.542;13.440;2023-03-03T03:38:26;1.90;99.90
2054;DHT22;1032;52.542;13.440;2023-03-03T03:40:54;2.00;99.90
2054;DHT22;1032;52.542;13.440;2023-03-03T03:43:21;1.50;99.90
2054;DHT22;1032;52.542;13.440;2023-03-03T03:45:48;2.20;99.90
2054;DHT22;1032;52.542;13.440;2023-03-03T03:48:15;2.10;99.90
2054;DHT22;1032;52.542;13.440;2023-03-03T03:50:46;2.10;99.90
2054;DHT22;1032;52.542;13.440;2023-03-03T03:53:13;2.10;99.90
2054;DHT22;1032;52.542;13.440;2023-03-03T03:55:40;1.90;99.90
2054;DHT22;1032;52.542;13.440;2023-03-03T03:58:07;2.10;99.90
2054;DHT22;1032;52.542;13.440;2023-03-03T04:00:34;2.10;99.90
2054;DHT22;1032;52.542;13.440;2023-03-03T04:03:00;1.40;99.90
2054;DHT22;1032;52.542;13.440;2023-03-03T04:05:27;2.10;99.90
2054;DHT22;1032;52.542;13.440;2023-03-03T04:07:56;1.80;99.90
2054;DHT22;1032;52.542;13.440;2023-03-03T04:10:23;1.80;99.90
2054;DHT22;1032;52.542;13.440;2023-03-03T04:12:50;1.70;99.90
2054;DHT22;1032;52.542;13.440;2023-03-03T04:15:16;1.30;99.90
2054;DHT22;1032;52.542;13.440;2023-03-03T04:17:43;2.40;99.90
2054;DHT22;1032;52.542;13.440;2023-03-03T04:20:12;2.00;99.90
2054;DHT22;1032;52.542;13.440;2023-03-03T04:22:40;2.00;99.90
2054;DHT22;1032;52.542;13.440;2023-03-03T04:25:10;1.80;99.90
2054;DHT22;1032;52.542;13.440;2023-03-03T04:27:40;2.00;99.90
2054;DHT22;1032;52.542;13.440;2023-03-03T04:30:09;2.10;99.90
2054;DHT22;1032;52.542;13.440;2023-03-03T04:32:37;2.00;99.90
2054;DHT22;1032;52.542;13.440;2023-03-03T04:35:07;1.80;99.90
2054;DHT22;1032;52.542;13.440;2023-03-03T04:37:37;1.90;99.90
2054;DHT22;1032;52.542;13.440;2023-03-03T04:40:08;2.00;99.90
2054;DHT22;1032;52.542;13.440;2023-03-03T04:42:36;1.80;99.90
2054;DHT22;1032;52.542;13.440;2023-03-03T04:45:05;2.20;99.90
2054;DHT22;1032;52.542;13.440;2023-03-03T04:47:32;1.90;99.90
2054;DHT22;1032;52.542;13.440;2023-03-03T04:49:59;1.90;99.90
2054;DHT22;1032;52.542;13.440;2023-03-03T04:52:29;2.00;99.90
2054;DHT22;1032;52.542;13.440;2023-03-03T04:54:56;2.20;99.90
2054;DHT22;1032;52.542;13.440;2023-03-03T04:57:25;1.90;99.90
2054;DHT22;1032;52.542;13.440;2023-03-03T04:59:52;1.90;99.90
2054;DHT22;1032;52.542;13.440;2023-03-03T05:02:19;2.00;99.90
2054;DHT22;1032;52.542;13.440;2023-03-03T05:04:46;1.70;99.90
2054;DHT22;1032;52.542;13.440;2023-03-03T05:07:13;1.70;99.90
2054;DHT22;1032;52.542;13.440;2023-03-03T05:09:40;1.90;99.90
2054;DHT22;1032;52.542;13.440;2023-03-03T05:12:07;1.90;99.90
2054;DHT22;1032;52.542;13.440;2023-03-03T05:14:35;1.80;99.90
2054;DHT22;1032;52.542;13.440;2023-03-03T05:17:01;1.30;99.90
2054;DHT22;1032;52.542;13.440;2023-03-03T05:19:29;2.20;99.90
2054;DHT22;1032;52.542;13.440;2023-03-03T05:21:55;1.90;99.90
2054;DHT22;1032;52.542;13.440;2023-03-03T05:24:23;1.20;99.90
2054;DHT22;1032;52.542;13.440;2023-03-03T05:26:50;2.00;99.90
2054;DHT22;1032;52.542;13.440;2023-03-03T05:29:16;1.90;99.90
2054;DHT22;1032;52.542;13.440;2023-03-03T05:31:44;2.10;99.90
2054;DHT22;1032;52.542;13.440;2023-03-03T05:34:11;2.00;99.90
2054;DHT22;1032;52.542;13.440;2023-03-03T05:36:37;2.30;99.90
2054;DHT22;1032;52.542;13.440;2023-03-03T05:39:04;1.60;99.90
2054;DHT22;1032;52.542;13.440;2023-03-03T05:41:31;1.90;99.90
2054;DHT22;1032;52.542;13.440;2023-03-03T05:44:01;2.10;99.90
2054;DHT22;1032;52.542;13.440;2023-03-03T05:46:28;2.30;99.90
2054;DHT22;1032;52.542;13.440;2023-03-03T05:48:56;2.00;99.90
2054;DHT22;1032;52.542;13.440;2023-03-03T05:51:22;1.80;99.90
2054;DHT22;1032;52.542;13.440;2023-03-03T05:53:49;1.90;99.90
2054;DHT22;1032;52.542;13.440;2023-03-03T05:56:16;2.00;99.90
2054;DHT22;1032;52.542;13.440;2023-03-03T05:58:43;1.90;99.90
2054;DHT22;1032;52.542;13.440;2023-03-03T06:01:09;2.20;99.90
2054;DHT22;1032;52.542;13.440;2023-03-03T06:03:36;2.20;99.90
2054;DHT22;1032;52.542;13.440;2023-03-03T06:06:04;2.30;99.90
2054;DHT22;1032;52.542;13.440;2023-03-03T06:08:31;2.10;99.90
2054;DHT22;1032;52.542;13.440;2023-03-03T06:10:58;1.90;99.90
2054;DHT22;1032;52.542;13.440;2023-03-03T06:13:25;2.00;99.90
2054;DHT22;1032;52.542;13.440;2023-03-03T06:15:51;2.20;99.90
2054;DHT22;1032;52.542;13.440;2023-03-03T06:18:18;2.00;99.90
2054;DHT22;1032;52.542;13.440;2023-03-03T06:20:49;1.80;99.90
2054;DHT22;1032;52.542;13.440;2023-03-03T06:23:17;1.80;99.90
2054;DHT22;1032;52.542;13.440;2023-03-03T06:25:44;1.70;99.90
2054;DHT22;1032;52.542;13.440;2023-03-03T06:28:10;1.20;99.90
2054;DHT22;1032;52.542;13.440;2023-03-03T06:30:37;1.60;99.90
2054;DHT22;1032;52.542;13.440;2023-03-03T06:33:04;1.60;99.90
2054;DHT22;1032;52.542;13.440;2023-03-03T06:35:31;1.10;99.90
2054;DHT22;1032;52.542;13.440;2023-03-03T06:37:58;1.60;99.90
2054;DHT22;1032;52.542;13.440;2023-03-03T06:40:26;1.30;99.90
2054;DHT22;1032;52.542;13.440;2023-03-03T06:42:52;1.10;99.90
2054;DHT22;1032;52.542;13.440;2023-03-03T06:45:19;1.40;99.90
2054;DHT22;1032;52.542;13.440;2023-03-03T06:47:46;1.60;99.90
2054;DHT22;1032;52.542;13.440;2023-03-03T06:50:16;1.70;99.90
2054;DHT22;1032;52.542;13.440;2023-03-03T06:52:44;1.60;99.90
2054;DHT22;1032;52.542;13.440;2023-03-03T06:55:22;1.60;99.90
2054;DHT22;1032;52.542;13.440;2023-03-03T06:57:50;1.50;99.90
2054;DHT22;1032;52.542;13.440;2023-03-03T07:00:24;1.50;99.90
2054;DHT22;1032;52.542;13.440;2023-03-03T07:02:57;1.40;99.90
2054;DHT22;1032;52.542;13.440;2023-03-03T07:05:27;1.60;99.90
2054;DHT22;1032;52.542;13.440;2023-03-03T07:07:54;1.40;99.90
2054;DHT22;1032;52.542;13.440;2023-03-03T07:10:23;1.70;99.90
2054;DHT22;1032;52.542;13.440;2023-03-03T07:12:52;1.70;99.90
2054;DHT22;1032;52.542;13.440;2023-03-03T07:15:21;1.80;99.90
2054;DHT22;1032;52.542;13.440;2023-03-03T07:17:51;2.20;99.90
2054;DHT22;1032;52.542;13.440;2023-03-03T07:20:23;2.10;99.90
2054;DHT22;1032;52.542;13.440;2023-03-03T07:22:51;2.00;99.90
2054;DHT22;1032;52.542;13.440;2023-03-03T07:25:21;2.00;99.90
2054;DHT22;1032;52.542;13.440;2023-03-03T07:27:52;1.90;99.90
2054;DHT22;1032;52.542;13.440;2023-03-03T07:30:25;1.80;99.90
2054;DHT22;1032;52.542;13.440;2023-03-03T07:32:53;2.00;99.90
2054;DHT22;1032;52.542;13.440;2023-03-03T07:35:34;1.40;99.90
2054;DHT22;1032;52.542;13.440;2023-03-03T07:38:01;1.60;99.90
2054;DHT22;1032;52.542;13.440;2023-03-03T07:40:34;2.20;99.90
2054;DHT22;1032;52.542;13.440;2023-03-03T07:43:22;2.10;99.90
2054;DHT22;1032;52.542;13.440;2023-03-03T07:46:00;1.90;99.90
2054;DHT22;1032;52.542;13.440;2023-03-03T07:48:30;2.10;99.90
2054;DHT22;1032;52.542;13.440;2023-03-03T07:51:03;2.10;99.90
2054;DHT22;1032;52.542;13.440;2023-03-03T07:53:33;1.80;99.90
2054;DHT22;1032;52.542;13.440;2023-03-03T07:56:04;1.90;99.90
2054;DHT22;1032;52.542;13.440;2023-03-03T07:58:38;2.00;99.90
2054;DHT22;1032;52.542;13.440;2023-03-03T08:01:26;2.00;99.90
2054;DHT22;1032;52.542;13.440;2023-03-03T08:03:55;2.10;99.90
2054;DHT22;1032;52.542;13.440;2023-03-03T08:06:43;2.10;99.90
2054;DHT22;1032;52.542;13.440;2023-03-03T08:09:25;2.00;99.90
2054;DHT22;1032;52.542;13.440;2023-03-03T08:11:54;2.50;99.90
2054;DHT22;1032;52.542;13.440;2023-03-03T08:14:27;2.40;99.90
2054;DHT22;1032;52.542;13.440;2023-03-03T08:16:55;2.60;99.90
2054;DHT22;1032;52.542;13.440;2023-03-03T08:19:23;2.20;99.90
2054;DHT22;1032;52.542;13.440;2023-03-03T08:21:50;2.00;99.90
2054;DHT22;1032;52.542;13.440;2023-03-03T08:24:18;2.70;99.90
2054;DHT22;1032;52.542;13.440;2023-03-03T08:26:44;2.90;99.90
2054;DHT22;1032;52.542;13.440;2023-03-03T08:29:11;2.90;99.90
2054;DHT22;1032;52.542;13.440;2023-03-03T08:31:39;2.50;99.90
2054;DHT22;1032;52.542;13.440;2023-03-03T08:34:06;2.90;99.90
2054;DHT22;1032;52.542;13.440;2023-03-03T08:36:32;2.90;99.90
2054;DHT22;1032;52.542;13.440;2023-03-03T08:38:59;3.20;99.90
2054;DHT22;1032;52.542;13.440;2023-03-03T08:41:26;2.80;99.90
2054;DHT22;1032;52.542;13.440;2023-03-03T08:43:53;2.90;99.90
2054;DHT22;1032;52.542;13.440;2023-03-03T08:46:19;3.10;99.90
2054;DHT22;1032;52.542;13.440;2023-03-03T08:48:47;3.30;99.90
2054;DHT22;1032;52.542;13.440;2023-03-03T08:51:15;3.40;99.90
2054;DHT22;1032;52.542;13.440;2023-03-03T08:53:42;3.00;99.90
2054;DHT22;1032;52.542;13.440;2023-03-03T08:56:08;3.20;99.90
2054;DHT22;1032;52.542;13.440;2023-03-03T08:58:35;3.20;99.90
2054;DHT22;1032;52.542;13.440;2023-03-03T09:01:03;2.50;99.90
2054;DHT22;1032;52.542;13.440;2023-03-03T09:03:29;3.20;99.90
2054;DHT22;1032;52.542;13.440;2023-03-03T09:05:57;2.90;99.90
2054;DHT22;1032;52.542;13.440;2023-03-03T09:08:24;3.20;99.90
2054;DHT22;1032;52.542;13.440;2023-03-03T09:10:51;2.80;99.90
2054;DHT22;1032;52.542;13.440;2023-03-03T09:13:18;3.40;99.90
2054;DHT22;1032;52.542;13.440;2023-03-03T09:15:46;3.30;99.90
2054;DHT22;1032;52.542;13.440;2023-03-03T09:18:15;3.60;99.90
2054;DHT22;1032;52.542;13.440;2023-03-03T09:20:43;3.60;99.90
2054;DHT22;1032;52.542;13.440;2023-03-03T09:23:33;3.60;99.90
2054;DHT22;1032;52.542;13.440;2023-03-03T09:26:26;4.00;99.90
2054;DHT22;1032;52.542;13.440;2023-03-03T09:28:59;4.20;99.90
2054;DHT22;1032;52.542;13.440;2023-03-03T09:31:32;4.20;99.90
2054;DHT22;1032;52.542;13.440;2023-03-03T09:34:02;4.50;99.90
2054;DHT22;1032;52.542;13.440;2023-03-03T09:36:36;4.40;99.90
2054;DHT22;1032;52.542;13.440;2023-03-03T09:39:15;4.50;99.90
2054;DHT22;1032;52.542;13.440;2023-03-03T09:47:52;4.30;99.90
2054;DHT22;1032;52.542;13.440;2023-03-03T09:50:29;4.20;99.90
2054;DHT22;1032;52.542;13.440;2023-03-03T09:53:10;4.20;99.90
2054;DHT22;1032;52.542;13.440;2023-03-03T09:55:47;4.50;99.90
2054;DHT22;1032;52.542;13.440;2023-03-03T09:58:36;4.00;99.90
2054;DHT22;1032;52.542;13.440;2023-03-03T10:01:35;4.40;99.90
2054;DHT22;1032;52.542;13.440;2023-03-03T10:04:29;4.50;99.90
2054;DHT22;1032;52.542;13.440;2023-03-03T10:07:17;4.60;99.90
2054;DHT22;1032;52.542;13.440;2023-03-03T10:10:05;4.40;99.90
2054;DHT22;1032;52.542;13.440;2023-03-03T10:12:44;4.40;99.90
2054;DHT22;1032;52.542;13.440;2023-03-03T10:15:24;3.90;99.90
2054;DHT22;1032;52.542;13.440;2023-03-03T10:18:00;4.50;99.90
2054;DHT22;1032;52.542;13.440;2023-03-03T10:20:49;4.70;99.90
2054;DHT22;1032;52.542;13.440;2023-03-03T10:23:20;4.40;99.90
2054;DHT22;1032;52.542;13.440;2023-03-03T10:25:58;4.80;99.90
2054;DHT22;1032;52.542;13.440;2023-03-03T10:28:55;4.70;99.90
2054;DHT22;1032;52.542;13.440;2023-03-03T10:31:33;4.90;99.90
2054;DHT22;1032;52.542;13.440;2023-03-03T10:34:10;4.80;99.90
2054;DHT22;1032;52.542;13.440;2023-03-03T10:36:45;5.10;99.90
2054;DHT22;1032;52.542;13.440;2023-03-03T10:39:24;5.40;99.90
2054;DHT22;1032;52.542;13.440;2023-03-03T10:45:00;5.00;99.90
2054;DHT22;1032;52.542;13.440;2023-03-03T10:47:48;5.30;99.90
2054;DHT22;1032;52.542;13.440;2023-03-03T10:50:23;5.10;99.90
2054;DHT22;1032;52.542;13.440;2023-03-03T10:53:09;5.40;99.90
2054;DHT22;1032;52.542;13.440;2023-03-03T10:55:45;5.40;99.90
2054;DHT22;1032;52.542;13.440;2023-03-03T10:58:40;5.40;99.90
2054;DHT22;1032;52.542;13.440;2023-03-03T11:01:20;5.30;99.90
2054;DHT22;1032;52.542;13.440;2023-03-03T11:04:06;5.70;99.90
2054;DHT22;1032;52.542;13.440;2023-03-03T11:06:45;5.70;99.90
2054;DHT22;1032;52.542;13.440;2023-03-03T11:09:30;5.30;99.90
2054;DHT22;1032;52.542;13.440;2023-03-03T11:12:10;5.40;99.90
2054;DHT22;1032;52.542;13.440;2023-03-03T11:14:48;5.60;99.90
2054;DHT22;1032;52.542;13.440;2023-03-03T11:17:22;5.20;99.90
2054;DHT22;1032;52.542;13.440;2023-03-03T11:20:00;5.30;99.90
2054;DHT22;1032;52.542;13.440;2023-03-03T11:22:33;5.00;99.90
2054;DHT22;1032;52.542;13.440;2023-03-03T11:25:19;5.30;99.90
2054;DHT22;1032;52.542;13.440;2023-03-03T11:28:04;5.10;99.90
2054;DHT22;1032;52.542;13.440;2023-03-03T11:30:47;6.00;99.90
2054;DHT22;1032;52.542;13.440;2023-03-03T11:33:21;5.50;99.90
2054;DHT22;1032;52.542;13.440;2023-03-03T11:35:52;5.30;99.90
2054;DHT22;1032;52.542;13.440;2023-03-03T11:38:33;5.30;99.90
2054;DHT22;1032;52.542;13.440;2023-03-03T11:41:10;5.40;99.90
2054;DHT22;1032;52.542;13.440;2023-03-03T11:43:43;5.60;99.90
2054;DHT22;1032;52.542;13.440;2023-03-03T11:46:14;5.60;99.90
2054;DHT22;1032;52.542;13.440;2023-03-03T11:48:49;5.80;99.90
2054;DHT22;1032;52.542;13.440;2023-03-03T11:51:21;5.70;99.90
2054;DHT22;1032;52.542;13.440;2023-03-03T11:54:01;5.70;99.90
2054;DHT22;1032;52.542;13.440;2023-03-03T11:56:33;5.60;99.90
2054;DHT22;1032;52.542;13.440;2023-03-03T11:59:11;5.70;99.90
2054;DHT22;1032;52.542;13.440;2023-03-03T12:01:45;6.20;99.90
2054;DHT22;1032;52.542;13.440;2023-03-03T12:04:19;5.90;99.90
2054;DHT22;1032;52.542;13.440;2023-03-03T12:07:01;5.40;99.90
2054;DHT22;1032;52.542;13.440;2023-03-03T12:09:39;5.70;99.90
2054;DHT22;1032;52.542;13.440;2023-03-03T12:12:14;5.90;99.90
2054;DHT22;1032;52.542;13.440;2023-03-03T12:14:58;6.00;99.90
2054;DHT22;1032;52.542;13.440;2023-03-03T12:17:45;6.40;99.90
2054;DHT22;1032;52.542;13.440;2023-03-03T12:20:24;6.10;99.90
2054;DHT22;1032;52.542;13.440;2023-03-03T12:23:07;6.00;99.90
2054;DHT22;1032;52.542;13.440;2023-03-03T12:25:39;6.20;99.90
2054;DHT22;1032;52.542;13.440;2023-03-03T12:28:10;5.90;99.90
2054;DHT22;1032;52.542;13.440;2023-03-03T12:30:59;5.90;99.90
2054;DHT22;1032;52.542;13.440;2023-03-03T12:33:49;6.20;99.90
2054;DHT22;1032;52.542;13.440;2023-03-03T12:36:28;6.10;99.90
2054;DHT22;1032;52.542;13.440;2023-03-03T12:39:03;6.20;99.90
2054;DHT22;1032;52.542;13.440;2023-03-03T12:41:34;5.90;99.90
2054;DHT22;1032;52.542;13.440;2023-03-03T12:44:10;6.60;99.90
2054;DHT22;1032;52.542;13.440;2023-03-03T12:46:44;6.70;99.90
2054;DHT22;1032;52.542;13.440;2023-03-03T12:49:12;6.10;99.90
2054;DHT22;1032;52.542;13.440;2023-03-03T12:52:04;6.70;99.90
2054;DHT22;1032;52.542;13.440;2023-03-03T12:54:45;6.60;99.90
2054;DHT22;1032;52.542;13.440;2023-03-03T12:57:22;6.70;99.90
2054;DHT22;1032;52.542;13.440;2023-03-03T13:00:02;6.40;99.90
2054;DHT22;1032;52.542;13.440;2023-03-03T13:02:44;6.50;99.90
2054;DHT22;1032;52.542;13.440;2023-03-03T13:05:20;6.50;99.90
2054;DHT22;1032;52.542;13.440;2023-03-03T13:07:58;6.30;99.90
2054;DHT22;1032;52.542;13.440;2023-03-03T13:10:30;6.10;99.90
2054;DHT22;1032;52.542;13.440;2023-03-03T13:13:05;6.20;99.90
2054;DHT22;1032;52.542;13.440;2023-03-03T13:15:38;6.20;99.90
2054;DHT22;1032;52.542;13.440;2023-03-03T13:18:24;5.90;99.90
2054;DHT22;1032;52.542;13.440;2023-03-03T13:20:57;6.60;99.90
2054;DHT22;1032;52.542;13.440;2023-03-03T13:23:42;6.30;99.90
2054;DHT22;1032;52.542;13.440;2023-03-03T13:26:17;6.50;99.90
2054;DHT22;1032;52.542;13.440;2023-03-03T13:28:56;6.50;99.90
2054;DHT22;1032;52.542;13.440;2023-03-03T13:31:30;6.40;99.90
2054;DHT22;1032;52.542;13.440;2023-03-03T13:33:59;6.30;99.90
2054;DHT22;1032;52.542;13.440;2023-03-03T13:36:30;6.10;99.90
2054;DHT22;1032;52.542;13.440;2023-03-03T13:39:05;6.30;99.90
2054;DHT22;1032;52.542;13.440;2023-03-03T13:41:44;6.30;99.90
2054;DHT22;1032;52.542;13.440;2023-03-03T13:44:17;6.20;99.90
2054;DHT22;1032;52.542;13.440;2023-03-03T13:46:56;6.30;99.90
2054;DHT22;1032;52.542;13.440;2023-03-03T13:49:34;6.50;99.90
2054;DHT22;1032;52.542;13.440;2023-03-03T13:52:05;6.40;99.90
2054;DHT22;1032;52.542;13.440;2023-03-03T13:54:47;6.60;99.90
2054;DHT22;1032;52.542;13.440;2023-03-03T13:57:24;6.40;99.90
2054;DHT22;1032;52.542;13.440;2023-03-03T14:00:06;6.80;99.90
2054;DHT22;1032;52.542;13.440;2023-03-03T14:02:58;6.90;99.90
2054;DHT22;1032;52.542;13.440;2023-03-03T14:05:34;6.40;99.90
2054;DHT22;1032;52.542;13.440;2023-03-03T14:08:08;6.40;99.90
2054;DHT22;1032;52.542;13.440;2023-03-03T14:10:43;6.90;99.90
2054;DHT22;1032;52.542;13.440;2023-03-03T14:13:17;6.70;99.90
2054;DHT22;1032;52.542;13.440;2023-03-03T14:15:49;7.00;99.90
2054;DHT22;1032;52.542;13.440;2023-03-03T14:18:30;6.70;99.90
2054;DHT22;1032;52.542;13.440;2023-03-03T14:21:04;6.60;99.90
2054;DHT22;1032;52.542;13.440;2023-03-03T14:23:41;6.90;99.90
2054;DHT22;1032;52.542;13.440;2023-03-03T14:26:13;6.30;99.90
2054;DHT22;1032;52.542;13.440;2023-03-03T14:28:41;6.90;99.90
2054;DHT22;1032;52.542;13.440;2023-03-03T14:31:20;6.90;99.90
2054;DHT22;1032;52.542;13.440;2023-03-03T14:33:57;6.80;99.90
2054;DHT22;1032;52.542;13.440;2023-03-03T14:36:27;7.00;99.90
2054;DHT22;1032;52.542;13.440;2023-03-03T14:38:54;7.20;99.90
2054;DHT22;1032;52.542;13.440;2023-03-03T14:41:37;6.90;99.90
2054;DHT22;1032;52.542;13.440;2023-03-03T14:44:26;6.70;99.90
2054;DHT22;1032;52.542;13.440;2023-03-03T14:47:11;6.90;99.90
2054;DHT22;1032;52.542;13.440;2023-03-03T14:49:42;7.30;99.90
2054;DHT22;1032;52.542;13.440;2023-03-03T14:52:19;7.20;99.90
2054;DHT22;1032;52.542;13.440;2023-03-03T14:54:47;6.70;99.90
2054;DHT22;1032;52.542;13.440;2023-03-03T14:57:17;6.70;99.90
2054;DHT22;1032;52.542;13.440;2023-03-03T14:59:58;7.10;99.90
2054;DHT22;1032;52.542;13.440;2023-03-03T15:02:30;6.90;99.90
2054;DHT22;1032;52.542;13.440;2023-03-03T15:05:18;7.00;99.90
2054;DHT22;1032;52.542;13.440;2023-03-03T15:07:49;6.90;99.90
2054;DHT22;1032;52.542;13.440;2023-03-03T15:10:30;6.80;99.90
2054;DHT22;1032;52.542;13.440;2023-03-03T15:13:09;7.00;99.90
2054;DHT22;1032;52.542;13.440;2023-03-03T15:15:48;7.20;99.90
2054;DHT22;1032;52.542;13.440;2023-03-03T15:18:16;7.10;99.90
2054;DHT22;1032;52.542;13.440;2023-03-03T15:20:46;6.60;99.90
2054;DHT22;1032;52.542;13.440;2023-03-03T15:23:38;7.10;99.90
2054;DHT22;1032;52.542;13.440;2023-03-03T15:26:09;7.10;99.90
2054;DHT22;1032;52.542;13.440;2023-03-03T15:28:50;7.30;99.90
2054;DHT22;1032;52.542;13.440;2023-03-03T15:31:26;7.20;99.90
2054;DHT22;1032;52.542;13.440;2023-03-03T15:34:02;7.10;99.90
2054;DHT22;1032;52.542;13.440;2023-03-03T15:36:35;7.40;99.90
2054;DHT22;1032;52.542;13.440;2023-03-03T15:39:13;7.20;99.90
2054;DHT22;1032;52.542;13.440;2023-03-03T15:41:44;7.00;99.90
2054;DHT22;1032;52.542;13.440;2023-03-03T15:44:18;7.20;99.90
2054;DHT22;1032;52.542;13.440;2023-03-03T15:47:03;7.00;99.90
2054;DHT22;1032;52.542;13.440;2023-03-03T15:49:56;6.90;99.90
2054;DHT22;1032;52.542;13.440;2023-03-03T15:52:36;7.00;99.90
2054;DHT22;1032;52.542;13.440;2023-03-03T15:55:16;7.00;99.90
2054;DHT22;1032;52.542;13.440;2023-03-03T15:57:55;6.90;99.90
2054;DHT22;1032;52.542;13.440;2023-03-03T16:00:52;7.40;99.90
2054;DHT22;1032;52.542;13.440;2023-03-03T16:03:26;6.70;99.90
2054;DHT22;1032;52.542;13.440;2023-03-03T16:05:57;7.30;99.90
2054;DHT22;1032;52.542;13.440;2023-03-03T16:08:31;7.10;99.90
2054;DHT22;1032;52.542;13.440;2023-03-03T16:11:07;7.10;99.90
2054;DHT22;1032;52.542;13.440;2023-03-03T16:13:48;6.90;99.90
2054;DHT22;1032;52.542;13.440;2023-03-03T16:16:27;7.10;99.90
2054;DHT22;1032;52.542;13.440;2023-03-03T16:19:02;7.20;99.90
2054;DHT22;1032;52.542;13.440;2023-03-03T16:21:52;7.10;99.90
2054;DHT22;1032;52.542;13.440;2023-03-03T16:24:31;6.90;99.90
2054;DHT22;1032;52.542;13.440;2023-03-03T16:27:04;6.90;99.90
2054;DHT22;1032;52.542;13.440;2023-03-03T16:29:44;7.00;99.90
2054;DHT22;1032;52.542;13.440;2023-03-03T16:32:17;6.90;99.90
2054;DHT22;1032;52.542;13.440;2023-03-03T16:34:54;6.60;99.90
2054;DHT22;1032;52.542;13.440;2023-03-03T16:37:28;7.20;99.90
2054;DHT22;1032;52.542;13.440;2023-03-03T16:40:02;7.40;99.90
2054;DHT22;1032;52.542;13.440;2023-03-03T16:42:30;6.80;99.90
2054;DHT22;1032;52.542;13.440;2023-03-03T16:45:05;6.20;99.90
2054;DHT22;1032;52.542;13.440;2023-03-03T16:47:46;6.70;99.90